Dutch Harbor, AK

11:33 AM AKDT on July 28, 2016 (GMT -0800)
Dutch Harbor | | Change Station

Elev 13 ft 53.90 °N, 166.54 °W | Updated 34 minutes ago

Overcast
Overcast
54 °F
Feels Like 54 °F
N
4
Wind Variable Wind from WNW

Today
High -- | Low -- °F
--% Chance of Precip.
Yesterday
High -- | Low -- °F
Precip. -- in
Pressure 30.05 in
Visibility 5.0 miles
Clouds Mostly Cloudy 600 ft
Mostly Cloudy 1200 ft
Overcast 1900 ft
Dew Point 48 °F
Humidity 82%
Rainfall 0.00 in
Snow Depth Not available.
7:14 AM 11:09 PM
Waning Crescent, 29% visible
METAR PADU 281859Z 29003KT 5SM BR BKN006 BKN012 OVC019 12/09 A3005 RMK AO2 VCFG S-NW VIS S-NW 2 CS
Pressure 30.05 in
Visibility 5.0 miles
Clouds Mostly Cloudy 600 ft
Mostly Cloudy 1200 ft
Overcast 1900 ft
Dew Point 48 °F
Humidity 82%
Rainfall 0.00 in
Snow Depth Not available.
7:14 AM 11:09 PM
Waning Crescent, 29% visible
METAR PADU 281859Z 29003KT 5SM BR BKN006 BKN012 OVC019 12/09 A3005 RMK AO2 VCFG S-NW VIS S-NW 2 CS

10-Day Weather Forecast

Almanac

Astronomy

Jul. 28, 2016 Rise Set
Actual Time
Civil Twilight
Nautical Twilight
Astronomical Twilight
Moon
Length of Visible Light
Length of Day
Tomorrow will be .
, % of the Moon is Illuminated

Today's Extremes

State Highs State Lows

Community

WunderPhotos

Upload Photos

1,928,193 photos uploaded!

WunderBlog® & News

Nearby

Air Quality

  Air Quality AQ Index Pollutant
Not available.

Snow Depth

Station Depth Elevation

Earthquake Activity

City Distance Mag. Time & Date
Minimum magnitude displayed is 2.5.

Coastal Water Temperatures

Place Temperature

Stations

Nearby Weather Stations

Station Location Temp. Windchill Dew Point Humidity Wind Precip. Elev Updated Type
                   

Watches & Warnings

There are currently no watches in effect.